sensor_id;sensor_type;location;lat;lon;timestamp;P1;durP1;ratioP1;P2;durP2;ratioP2
2039;SDS011;1025;42.686;23.350;2024-03-07T00:00:31;23.90;;;21.30;;
2039;SDS011;1025;42.686;23.350;2024-03-07T00:02:58;22.30;;;19.90;;
2039;SDS011;1025;42.686;23.350;2024-03-07T00:05:28;23.47;;;20.20;;
2039;SDS011;1025;42.686;23.350;2024-03-07T00:07:55;24.40;;;21.83;;
2039;SDS011;1025;42.686;23.350;2024-03-07T00:10:23;22.57;;;20.10;;
2039;SDS011;1025;42.686;23.350;2024-03-07T00:12:51;22.33;;;19.97;;
2039;SDS011;1025;42.686;23.350;2024-03-07T00:15:20;22.00;;;19.70;;
2039;SDS011;1025;42.686;23.350;2024-03-07T00:17:47;24.10;;;19.37;;
2039;SDS011;1025;42.686;23.350;2024-03-07T00:20:13;24.13;;;20.47;;
2039;SDS011;1025;42.686;23.350;2024-03-07T00:22:48;21.83;;;19.47;;
2039;SDS011;1025;42.686;23.350;2024-03-07T00:25:14;22.20;;;18.87;;
2039;SDS011;1025;42.686;23.350;2024-03-07T00:27:44;19.63;;;17.10;;
2039;SDS011;1025;42.686;23.350;2024-03-07T00:30:12;22.80;;;19.53;;
2039;SDS011;1025;42.686;23.350;2024-03-07T00:32:43;22.47;;;20.20;;
2039;SDS011;1025;42.686;23.350;2024-03-07T00:35:09;19.73;;;17.73;;
2039;SDS011;1025;42.686;23.350;2024-03-07T00:37:38;21.77;;;19.47;;
2039;SDS011;1025;42.686;23.350;2024-03-07T00:40:07;21.87;;;19.50;;
2039;SDS011;1025;42.686;23.350;2024-03-07T00:42:33;23.80;;;20.30;;
2039;SDS011;1025;42.686;23.350;2024-03-07T00:45:01;22.57;;;20.27;;
2039;SDS011;1025;42.686;23.350;2024-03-07T00:47:28;21.30;;;18.33;;
2039;SDS011;1025;42.686;23.350;2024-03-07T00:49:54;21.67;;;19.37;;
2039;SDS011;1025;42.686;23.350;2024-03-07T00:52:23;21.73;;;19.20;;
2039;SDS011;1025;42.686;23.350;2024-03-07T00:54:50;22.30;;;18.67;;
2039;SDS011;1025;42.686;23.350;2024-03-07T00:57:18;19.60;;;15.80;;
2039;SDS011;1025;42.686;23.350;2024-03-07T00:59:47;25.50;;;20.40;;
2039;SDS011;1025;42.686;23.350;2024-03-07T01:02:14;23.57;;;19.63;;
2039;SDS011;1025;42.686;23.350;2024-03-07T01:04:42;21.47;;;19.00;;
2039;SDS011;1025;42.686;23.350;2024-03-07T01:07:10;24.93;;;18.30;;
2039;SDS011;1025;42.686;23.350;2024-03-07T01:09:37;21.60;;;18.30;;
2039;SDS011;1025;42.686;23.350;2024-03-07T01:12:04;20.33;;;18.23;;
2039;SDS011;1025;42.686;23.350;2024-03-07T01:14:34;19.53;;;17.33;;
2039;SDS011;1025;42.686;23.350;2024-03-07T01:17:01;19.20;;;16.47;;
2039;SDS011;1025;42.686;23.350;2024-03-07T01:19:27;23.90;;;20.30;;
2039;SDS011;1025;42.686;23.350;2024-03-07T01:21:56;19.23;;;17.23;;
2039;SDS011;1025;42.686;23.350;2024-03-07T01:24:23;24.90;;;21.17;;
2039;SDS011;1025;42.686;23.350;2024-03-07T01:26:49;21.00;;;18.80;;
2039;SDS011;1025;42.686;23.350;2024-03-07T01:29:18;21.53;;;18.40;;
2039;SDS011;1025;42.686;23.350;2024-03-07T01:31:47;21.47;;;18.57;;
2039;SDS011;1025;42.686;23.350;2024-03-07T01:34:15;21.93;;;18.47;;
2039;SDS011;1025;42.686;23.350;2024-03-07T01:36:44;21.07;;;18.27;;
2039;SDS011;1025;42.686;23.350;2024-03-07T01:39:10;21.60;;;19.30;;
2039;SDS011;1025;42.686;23.350;2024-03-07T01:41:37;19.17;;;16.37;;
2039;SDS011;1025;42.686;23.350;2024-03-07T01:44:07;21.93;;;17.60;;
2039;SDS011;1025;42.686;23.350;2024-03-07T01:46:34;19.17;;;17.10;;
2039;SDS011;1025;42.686;23.350;2024-03-07T01:49:02;19.63;;;15.50;;
2039;SDS011;1025;42.686;23.350;2024-03-07T01:51:31;18.80;;;14.70;;
2039;SDS011;1025;42.686;23.350;2024-03-07T01:53:58;19.50;;;15.73;;
2039;SDS011;1025;42.686;23.350;2024-03-07T01:56:25;19.93;;;17.83;;
2039;SDS011;1025;42.686;23.350;2024-03-07T01:58:53;21.67;;;17.70;;
2039;SDS011;1025;42.686;23.350;2024-03-07T02:01:21;20.53;;;16.50;;
2039;SDS011;1025;42.686;23.350;2024-03-07T02:03:48;20.67;;;18.00;;
2039;SDS011;1025;42.686;23.350;2024-03-07T02:06:16;22.53;;;18.63;;
2039;SDS011;1025;42.686;23.350;2024-03-07T02:08:43;21.93;;;19.13;;
2039;SDS011;1025;42.686;23.350;2024-03-07T02:11:12;22.73;;;19.80;;
2039;SDS011;1025;42.686;23.350;2024-03-07T02:13:38;20.37;;;17.27;;
2039;SDS011;1025;42.686;23.350;2024-03-07T02:16:05;25.23;;;20.17;;
2039;SDS011;1025;42.686;23.350;2024-03-07T02:18:34;24.70;;;19.67;;
2039;SDS011;1025;42.686;23.350;2024-03-07T02:21:06;21.87;;;19.57;;
2039;SDS011;1025;42.686;23.350;2024-03-07T02:23:34;22.90;;;18.57;;
2039;SDS011;1025;42.686;23.350;2024-03-07T02:26:02;19.77;;;17.37;;
2039;SDS011;1025;42.686;23.350;2024-03-07T02:28:29;19.27;;;13.00;;
2039;SDS011;1025;42.686;23.350;2024-03-07T02:30:55;16.60;;;14.03;;
2039;SDS011;1025;42.686;23.350;2024-03-07T02:33:24;10.03;;;9.13;;
2039;SDS011;1025;42.686;23.350;2024-03-07T02:35:51;9.77;;;8.53;;
2039;SDS011;1025;42.686;23.350;2024-03-07T02:38:19;9.57;;;8.57;;
2039;SDS011;1025;42.686;23.350;2024-03-07T02:40:47;8.23;;;7.57;;
2039;SDS011;1025;42.686;23.350;2024-03-07T02:43:14;7.47;;;6.77;;
2039;SDS011;1025;42.686;23.350;2024-03-07T02:45:41;6.77;;;6.07;;
2039;SDS011;1025;42.686;23.350;2024-03-07T02:48:09;5.90;;;5.30;;
2039;SDS011;1025;42.686;23.350;2024-03-07T02:50:38;6.50;;;5.90;;
2039;SDS011;1025;42.686;23.350;2024-03-07T02:53:04;7.50;;;6.70;;
2039;SDS011;1025;42.686;23.350;2024-03-07T02:55:33;9.70;;;8.50;;
2039;SDS011;1025;42.686;23.350;2024-03-07T02:58:01;6.00;;;5.40;;
2039;SDS011;1025;42.686;23.350;2024-03-07T03:00:28;6.70;;;5.90;;
2039;SDS011;1025;42.686;23.350;2024-03-07T03:02:55;5.23;;;4.73;;
2039;SDS011;1025;42.686;23.350;2024-03-07T03:05:24;5.17;;;4.70;;
2039;SDS011;1025;42.686;23.350;2024-03-07T03:07:51;8.53;;;6.87;;
2039;SDS011;1025;42.686;23.350;2024-03-07T03:10:20;7.37;;;6.10;;
2039;SDS011;1025;42.686;23.350;2024-03-07T03:12:51;6.87;;;5.97;;
2039;SDS011;1025;42.686;23.350;2024-03-07T03:15:18;5.30;;;4.80;;
2039;SDS011;1025;42.686;23.350;2024-03-07T03:17:45;7.00;;;5.23;;
2039;SDS011;1025;42.686;23.350;2024-03-07T03:20:14;5.73;;;5.23;;
2039;SDS011;1025;42.686;23.350;2024-03-07T03:22:51;4.80;;;4.33;;
2039;SDS011;1025;42.686;23.350;2024-03-07T03:25:18;5.80;;;4.80;;
2039;SDS011;1025;42.686;23.350;2024-03-07T03:27:45;4.70;;;4.20;;
2039;SDS011;1025;42.686;23.350;2024-03-07T03:30:16;6.10;;;4.70;;
2039;SDS011;1025;42.686;23.350;2024-03-07T03:32:43;5.13;;;4.63;;
2039;SDS011;1025;42.686;23.350;2024-03-07T03:35:10;6.73;;;3.70;;
2039;SDS011;1025;42.686;23.350;2024-03-07T03:37:40;4.50;;;4.10;;
2039;SDS011;1025;42.686;23.350;2024-03-07T03:40:09;6.60;;;4.40;;
2039;SDS011;1025;42.686;23.350;2024-03-07T03:42:37;6.20;;;4.20;;
2039;SDS011;1025;42.686;23.350;2024-03-07T03:45:03;5.10;;;3.83;;
2039;SDS011;1025;42.686;23.350;2024-03-07T03:47:35;3.83;;;3.40;;
2039;SDS011;1025;42.686;23.350;2024-03-07T03:50:02;3.60;;;3.30;;
2039;SDS011;1025;42.686;23.350;2024-03-07T03:52:29;4.70;;;4.23;;
2039;SDS011;1025;42.686;23.350;2024-03-07T03:54:58;4.17;;;3.77;;
2039;SDS011;1025;42.686;23.350;2024-03-07T03:57:24;3.87;;;3.57;;
2039;SDS011;1025;42.686;23.350;2024-03-07T03:59:51;2.73;;;2.50;;
2039;SDS011;1025;42.686;23.350;2024-03-07T04:02:18;2.50;;;2.30;;
2039;SDS011;1025;42.686;23.350;2024-03-07T04:04:45;1.77;;;1.63;;
2039;SDS011;1025;42.686;23.350;2024-03-07T04:07:12;2.30;;;2.10;;
2039;SDS011;1025;42.686;23.350;2024-03-07T04:09:41;1.63;;;1.40;;
2039;SDS011;1025;42.686;23.350;2024-03-07T04:12:07;1.43;;;1.33;;
2039;SDS011;1025;42.686;23.350;2024-03-07T04:14:35;1.43;;;1.33;;
2039;SDS011;1025;42.686;23.350;2024-03-07T04:17:02;1.30;;;1.20;;
2039;SDS011;1025;42.686;23.350;2024-03-07T04:19:28;2.07;;;1.63;;
2039;SDS011;1025;42.686;23.350;2024-03-07T04:21:57;1.10;;;1.00;;
2039;SDS011;1025;42.686;23.350;2024-03-07T04:24:24;1.73;;;1.20;;
2039;SDS011;1025;42.686;23.350;2024-03-07T04:26:51;1.20;;;1.10;;
2039;SDS011;1025;42.686;23.350;2024-03-07T04:29:18;1.50;;;1.30;;
2039;SDS011;1025;42.686;23.350;2024-03-07T04:31:47;1.60;;;1.50;;
2039;SDS011;1025;42.686;23.350;2024-03-07T04:34:15;2.73;;;1.93;;
2039;SDS011;1025;42.686;23.350;2024-03-07T04:36:41;2.53;;;2.33;;
2039;SDS011;1025;42.686;23.350;2024-03-07T04:39:11;3.43;;;2.63;;
2039;SDS011;1025;42.686;23.350;2024-03-07T04:41:49;6.53;;;4.03;;
2039;SDS011;1025;42.686;23.350;2024-03-07T04:44:16;4.23;;;3.13;;
2039;SDS011;1025;42.686;23.350;2024-03-07T04:46:42;3.00;;;2.80;;
2039;SDS011;1025;42.686;23.350;2024-03-07T04:49:09;3.40;;;3.10;;
2039;SDS011;1025;42.686;23.350;2024-03-07T04:51:36;3.07;;;2.77;;
2039;SDS011;1025;42.686;23.350;2024-03-07T04:54:06;2.30;;;2.10;;
2039;SDS011;1025;42.686;23.350;2024-03-07T04:56:34;4.87;;;3.10;;
2039;SDS011;1025;42.686;23.350;2024-03-07T04:59:00;7.87;;;3.20;;
2039;SDS011;1025;42.686;23.350;2024-03-07T05:01:27;4.30;;;3.90;;
2039;SDS011;1025;42.686;23.350;2024-03-07T05:03:56;3.73;;;3.33;;
2039;SDS011;1025;42.686;23.350;2024-03-07T05:06:22;2.70;;;2.50;;
2039;SDS011;1025;42.686;23.350;2024-03-07T05:08:50;3.80;;;3.50;;
2039;SDS011;1025;42.686;23.350;2024-03-07T05:11:17;3.20;;;2.90;;
2039;SDS011;1025;42.686;23.350;2024-03-07T05:13:46;4.67;;;3.40;;
2039;SDS011;1025;42.686;23.350;2024-03-07T05:16:15;3.57;;;2.80;;
2039;SDS011;1025;42.686;23.350;2024-03-07T05:18:42;4.23;;;3.80;;
2039;SDS011;1025;42.686;23.350;2024-03-07T05:21:09;4.40;;;3.40;;
2039;SDS011;1025;42.686;23.350;2024-03-07T05:23:51;3.70;;;3.40;;
2039;SDS011;1025;42.686;23.350;2024-03-07T05:26:18;3.60;;;3.30;;
2039;SDS011;1025;42.686;23.350;2024-03-07T05:28:44;5.27;;;4.17;;
2039;SDS011;1025;42.686;23.350;2024-03-07T05:31:14;4.00;;;3.70;;
2039;SDS011;1025;42.686;23.350;2024-03-07T05:33:43;4.57;;;3.60;;
2039;SDS011;1025;42.686;23.350;2024-03-07T05:36:09;3.63;;;3.27;;
2039;SDS011;1025;42.686;23.350;2024-03-07T05:38:41;5.40;;;4.60;;
2039;SDS011;1025;42.686;23.350;2024-03-07T05:41:09;4.00;;;3.60;;
2039;SDS011;1025;42.686;23.350;2024-03-07T05:43:37;4.70;;;4.13;;
2039;SDS011;1025;42.686;23.350;2024-03-07T05:46:04;3.93;;;3.53;;
2039;SDS011;1025;42.686;23.350;2024-03-07T05:48:33;8.17;;;4.70;;
2039;SDS011;1025;42.686;23.350;2024-03-07T05:51:01;6.47;;;5.67;;
2039;SDS011;1025;42.686;23.350;2024-03-07T05:53:28;5.07;;;4.57;;
2039;SDS011;1025;42.686;23.350;2024-03-07T05:55:55;5.40;;;4.90;;
2039;SDS011;1025;42.686;23.350;2024-03-07T05:58:24;5.20;;;4.30;;
2039;SDS011;1025;42.686;23.350;2024-03-07T06:00:52;5.17;;;4.77;;
2039;SDS011;1025;42.686;23.350;2024-03-07T06:03:19;5.37;;;4.93;;
2039;SDS011;1025;42.686;23.350;2024-03-07T06:05:47;5.07;;;4.67;;
2039;SDS011;1025;42.686;23.350;2024-03-07T06:08:16;6.93;;;6.20;;
2039;SDS011;1025;42.686;23.350;2024-03-07T06:10:43;5.23;;;4.73;;
2039;SDS011;1025;42.686;23.350;2024-03-07T06:13:10;6.53;;;5.60;;
2039;SDS011;1025;42.686;23.350;2024-03-07T06:15:39;6.10;;;5.60;;
2039;SDS011;1025;42.686;23.350;2024-03-07T06:18:06;6.30;;;4.70;;
2039;SDS011;1025;42.686;23.350;2024-03-07T06:20:33;5.23;;;4.50;;
2039;SDS011;1025;42.686;23.350;2024-03-07T06:23:04;4.53;;;4.13;;
2039;SDS011;1025;42.686;23.350;2024-03-07T06:25:31;4.40;;;4.00;;
2039;SDS011;1025;42.686;23.350;2024-03-07T06:28:02;6.43;;;4.53;;
2039;SDS011;1025;42.686;23.350;2024-03-07T06:30:34;6.37;;;5.77;;
2039;SDS011;1025;42.686;23.350;2024-03-07T06:33:02;5.73;;;4.50;;
2039;SDS011;1025;42.686;23.350;2024-03-07T06:35:28;5.70;;;5.20;;
2039;SDS011;1025;42.686;23.350;2024-03-07T06:37:57;6.83;;;3.80;;
2039;SDS011;1025;42.686;23.350;2024-03-07T06:40:25;4.90;;;4.40;;
2039;SDS011;1025;42.686;23.350;2024-03-07T06:42:51;5.07;;;4.60;;
2039;SDS011;1025;42.686;23.350;2024-03-07T06:45:20;6.43;;;5.30;;
2039;SDS011;1025;42.686;23.350;2024-03-07T06:47:49;7.73;;;4.77;;
2039;SDS011;1025;42.686;23.350;2024-03-07T06:50:17;4.13;;;3.63;;
2039;SDS011;1025;42.686;23.350;2024-03-07T06:52:47;4.63;;;4.13;;
2039;SDS011;1025;42.686;23.350;2024-03-07T06:55:14;5.00;;;4.50;;
2039;SDS011;1025;42.686;23.350;2024-03-07T06:57:43;5.53;;;5.00;;
2039;SDS011;1025;42.686;23.350;2024-03-07T07:00:13;6.93;;;4.80;;
2039;SDS011;1025;42.686;23.350;2024-03-07T07:02:40;5.83;;;4.40;;
2039;SDS011;1025;42.686;23.350;2024-03-07T07:05:07;4.97;;;3.97;;
2039;SDS011;1025;42.686;23.350;2024-03-07T07:07:37;5.00;;;4.30;;
2039;SDS011;1025;42.686;23.350;2024-03-07T07:10:04;7.47;;;4.03;;
2039;SDS011;1025;42.686;23.350;2024-03-07T07:12:34;4.70;;;4.30;;
2039;SDS011;1025;42.686;23.350;2024-03-07T07:15:04;5.57;;;5.10;;
2039;SDS011;1025;42.686;23.350;2024-03-07T07:17:31;4.17;;;3.77;;
2039;SDS011;1025;42.686;23.350;2024-03-07T07:19:58;4.20;;;3.60;;
2039;SDS011;1025;42.686;23.350;2024-03-07T07:22:27;5.03;;;4.60;;
2039;SDS011;1025;42.686;23.350;2024-03-07T07:24:55;6.17;;;5.00;;
2039;SDS011;1025;42.686;23.350;2024-03-07T07:27:21;5.80;;;5.30;;
2039;SDS011;1025;42.686;23.350;2024-03-07T07:29:49;5.87;;;4.93;;
2039;SDS011;1025;42.686;23.350;2024-03-07T07:32:18;7.93;;;6.83;;
2039;SDS011;1025;42.686;23.350;2024-03-07T07:34:48;6.20;;;4.47;;
2039;SDS011;1025;42.686;23.350;2024-03-07T07:37:17;4.70;;;4.30;;
2039;SDS011;1025;42.686;23.350;2024-03-07T07:39:43;5.30;;;4.20;;
2039;SDS011;1025;42.686;23.350;2024-03-07T07:42:11;3.90;;;3.47;;
2039;SDS011;1025;42.686;23.350;2024-03-07T07:44:40;4.93;;;4.47;;
2039;SDS011;1025;42.686;23.350;2024-03-07T07:47:08;3.90;;;3.50;;
2039;SDS011;1025;42.686;23.350;2024-03-07T07:49:39;3.60;;;3.30;;
2039;SDS011;1025;42.686;23.350;2024-03-07T07:52:06;3.90;;;3.50;;
2039;SDS011;1025;42.686;23.350;2024-03-07T07:54:33;2.67;;;2.30;;
2039;SDS011;1025;42.686;23.350;2024-03-07T07:57:00;2.73;;;2.53;;
2039;SDS011;1025;42.686;23.350;2024-03-07T07:59:27;3.53;;;3.13;;
2039;SDS011;1025;42.686;23.350;2024-03-07T08:01:54;3.23;;;2.80;;
2039;SDS011;1025;42.686;23.350;2024-03-07T08:04:23;3.27;;;2.97;;
2039;SDS011;1025;42.686;23.350;2024-03-07T08:06:51;4.30;;;3.90;;
2039;SDS011;1025;42.686;23.350;2024-03-07T08:09:17;3.20;;;2.90;;
2039;SDS011;1025;42.686;23.350;2024-03-07T08:11:46;3.90;;;2.90;;
2039;SDS011;1025;42.686;23.350;2024-03-07T08:14:15;3.20;;;2.90;;
2039;SDS011;1025;42.686;23.350;2024-03-07T08:16:41;3.07;;;2.30;;
2039;SDS011;1025;42.686;23.350;2024-03-07T08:19:10;3.77;;;3.30;;
2039;SDS011;1025;42.686;23.350;2024-03-07T08:21:39;2.30;;;2.00;;
2039;SDS011;1025;42.686;23.350;2024-03-07T08:24:07;2.40;;;1.93;;
2039;SDS011;1025;42.686;23.350;2024-03-07T08:26:37;2.30;;;1.80;;
2039;SDS011;1025;42.686;23.350;2024-03-07T08:29:05;2.27;;;1.90;;
2039;SDS011;1025;42.686;23.350;2024-03-07T08:31:32;2.30;;;2.10;;
2039;SDS011;1025;42.686;23.350;2024-03-07T08:33:58;3.23;;;2.53;;
2039;SDS011;1025;42.686;23.350;2024-03-07T08:36:27;2.70;;;2.50;;
2039;SDS011;1025;42.686;23.350;2024-03-07T08:38:54;3.70;;;2.70;;
2039;SDS011;1025;42.686;23.350;2024-03-07T08:41:22;3.90;;;3.40;;
2039;SDS011;1025;42.686;23.350;2024-03-07T08:43:50;2.50;;;2.30;;
2039;SDS011;1025;42.686;23.350;2024-03-07T08:46:17;3.57;;;3.23;;
2039;SDS011;1025;42.686;23.350;2024-03-07T08:48:44;4.10;;;2.53;;
2039;SDS011;1025;42.686;23.350;2024-03-07T08:51:13;3.70;;;3.20;;
2039;SDS011;1025;42.686;23.350;2024-03-07T08:53:39;4.10;;;2.60;;
2039;SDS011;1025;42.686;23.350;2024-03-07T08:56:06;2.20;;;2.00;;
2039;SDS011;1025;42.686;23.350;2024-03-07T08:58:36;2.40;;;2.13;;
2039;SDS011;1025;42.686;23.350;2024-03-07T09:01:03;4.27;;;3.70;;
2039;SDS011;1025;42.686;23.350;2024-03-07T09:03:30;9.70;;;5.00;;
2039;SDS011;1025;42.686;23.350;2024-03-07T09:05:58;3.37;;;3.07;;
2039;SDS011;1025;42.686;23.350;2024-03-07T09:08:25;4.93;;;4.10;;
2039;SDS011;1025;42.686;23.350;2024-03-07T09:10:52;3.13;;;2.73;;
2039;SDS011;1025;42.686;23.350;2024-03-07T09:13:20;5.60;;;3.30;;
2039;SDS011;1025;42.686;23.350;2024-03-07T09:15:48;6.63;;;3.93;;
2039;SDS011;1025;42.686;23.350;2024-03-07T09:18:15;14.57;;;5.30;;
2039;SDS011;1025;42.686;23.350;2024-03-07T09:20:42;4.30;;;3.40;;
2039;SDS011;1025;42.686;23.350;2024-03-07T09:23:12;6.00;;;4.93;;
2039;SDS011;1025;42.686;23.350;2024-03-07T09:25:39;7.20;;;4.93;;
2039;SDS011;1025;42.686;23.350;2024-03-07T09:28:06;5.73;;;3.37;;
2039;SDS011;1025;42.686;23.350;2024-03-07T09:30:35;5.17;;;4.67;;
2039;SDS011;1025;42.686;23.350;2024-03-07T09:33:05;6.50;;;3.90;;
2039;SDS011;1025;42.686;23.350;2024-03-07T09:35:38;3.67;;;3.37;;
2039;SDS011;1025;42.686;23.350;2024-03-07T09:38:04;7.03;;;4.20;;
2039;SDS011;1025;42.686;23.350;2024-03-07T09:40:32;12.60;;;4.10;;
2039;SDS011;1025;42.686;23.350;2024-03-07T09:42:59;5.93;;;4.53;;
2039;SDS011;1025;42.686;23.350;2024-03-07T09:45:28;4.27;;;2.60;;
2039;SDS011;1025;42.686;23.350;2024-03-07T09:47:55;5.40;;;2.90;;
2039;SDS011;1025;42.686;23.350;2024-03-07T09:50:26;3.10;;;2.90;;
2039;SDS011;1025;42.686;23.350;2024-03-07T09:52:55;3.10;;;2.70;;
2039;SDS011;1025;42.686;23.350;2024-03-07T09:55:22;3.03;;;2.70;;
2039;SDS011;1025;42.686;23.350;2024-03-07T09:57:50;3.60;;;3.30;;
2039;SDS011;1025;42.686;23.350;2024-03-07T10:00:18;3.07;;;2.77;;
2039;SDS011;1025;42.686;23.350;2024-03-07T10:02:51;13.63;;;4.33;;
2039;SDS011;1025;42.686;23.350;2024-03-07T10:05:19;6.10;;;3.20;;
2039;SDS011;1025;42.686;23.350;2024-03-07T10:07:48;3.63;;;3.33;;
2039;SDS011;1025;42.686;23.350;2024-03-07T10:10:14;5.00;;;2.90;;
2039;SDS011;1025;42.686;23.350;2024-03-07T10:12:42;3.53;;;3.27;;
2039;SDS011;1025;42.686;23.350;2024-03-07T10:15:10;3.37;;;3.07;;
2039;SDS011;1025;42.686;23.350;2024-03-07T10:17:38;4.03;;;3.63;;
2039;SDS011;1025;42.686;23.350;2024-03-07T10:20:07;4.20;;;3.90;;
2039;SDS011;1025;42.686;23.350;2024-03-07T10:22:38;4.40;;;3.60;;
2039;SDS011;1025;42.686;23.350;2024-03-07T10:25:09;3.60;;;3.30;;
2039;SDS011;1025;42.686;23.350;2024-03-07T10:27:36;26.03;;;7.67;;
2039;SDS011;1025;42.686;23.350;2024-03-07T10:30:03;4.17;;;3.87;;
2039;SDS011;1025;42.686;23.350;2024-03-07T10:32:35;3.40;;;3.07;;
2039;SDS011;1025;42.686;23.350;2024-03-07T10:35:02;5.50;;;4.00;;
2039;SDS011;1025;42.686;23.350;2024-03-07T10:37:33;14.27;;;4.70;;
2039;SDS011;1025;42.686;23.350;2024-03-07T10:40:02;3.60;;;3.30;;
2039;SDS011;1025;42.686;23.350;2024-03-07T10:42:41;4.80;;;2.50;;
2039;SDS011;1025;42.686;23.350;2024-03-07T10:45:12;3.20;;;2.90;;
2039;SDS011;1025;42.686;23.350;2024-03-07T10:47:43;3.60;;;3.30;;
2039;SDS011;1025;42.686;23.350;2024-03-07T10:50:13;3.37;;;3.07;;
2039;SDS011;1025;42.686;23.350;2024-03-07T10:52:46;4.20;;;3.30;;
2039;SDS011;1025;42.686;23.350;2024-03-07T10:55:15;13.33;;;4.60;;
2039;SDS011;1025;42.686;23.350;2024-03-07T10:57:49;9.90;;;4.93;;
2039;SDS011;1025;42.686;23.350;2024-03-07T11:00:18;7.47;;;4.10;;
2039;SDS011;1025;42.686;23.350;2024-03-07T11:03:00;4.90;;;3.90;;
2039;SDS011;1025;42.686;23.350;2024-03-07T11:05:37;4.17;;;3.70;;
2039;SDS011;1025;42.686;23.350;2024-03-07T11:08:05;4.93;;;3.87;;
2039;SDS011;1025;42.686;23.350;2024-03-07T11:10:36;7.63;;;4.93;;
2039;SDS011;1025;42.686;23.350;2024-03-07T11:13:07;3.97;;;3.60;;
2039;SDS011;1025;42.686;23.350;2024-03-07T11:15:35;3.80;;;3.50;;
2039;SDS011;1025;42.686;23.350;2024-03-07T11:18:02;7.50;;;4.03;;
2039;SDS011;1025;42.686;23.350;2024-03-07T11:20:33;4.13;;;3.57;;
2039;SDS011;1025;42.686;23.350;2024-03-07T11:23:00;6.60;;;3.80;;
2039;SDS011;1025;42.686;23.350;2024-03-07T11:25:28;4.23;;;3.83;;
2039;SDS011;1025;42.686;23.350;2024-03-07T11:27:57;4.20;;;3.90;;
2039;SDS011;1025;42.686;23.350;2024-03-07T11:30:25;5.17;;;4.77;;
2039;SDS011;1025;42.686;23.350;2024-03-07T11:32:52;4.80;;;4.40;;
2039;SDS011;1025;42.686;23.350;2024-03-07T11:35:19;4.07;;;3.70;;
2039;SDS011;1025;42.686;23.350;2024-03-07T11:37:55;3.90;;;3.60;;
2039;SDS011;1025;42.686;23.350;2024-03-07T11:43:11;5.83;;;4.20;;
2039;SDS011;1025;42.686;23.350;2024-03-07T11:45:39;4.13;;;3.73;;
2039;SDS011;1025;42.686;23.350;2024-03-07T11:48:10;4.60;;;4.20;;
2039;SDS011;1025;42.686;23.350;2024-03-07T11:50:39;3.77;;;3.30;;
2039;SDS011;1025;42.686;23.350;2024-03-07T11:53:06;4.97;;;4.37;;
2039;SDS011;1025;42.686;23.350;2024-03-07T11:55:33;7.33;;;6.33;;
2039;SDS011;1025;42.686;23.350;2024-03-07T11:58:08;12.00;;;6.00;;
2039;SDS011;1025;42.686;23.350;2024-03-07T12:00:39;3.80;;;3.50;;
2039;SDS011;1025;42.686;23.350;2024-03-07T12:03:08;6.93;;;4.60;;
2039;SDS011;1025;42.686;23.350;2024-03-07T12:05:40;3.77;;;3.40;;
2039;SDS011;1025;42.686;23.350;2024-03-07T12:08:08;4.67;;;4.17;;
2039;SDS011;1025;42.686;23.350;2024-03-07T12:10:36;3.80;;;2.50;;
2039;SDS011;1025;42.686;23.350;2024-03-07T12:13:06;5.87;;;3.93;;
2039;SDS011;1025;42.686;23.350;2024-03-07T12:15:35;4.13;;;3.73;;
2039;SDS011;1025;42.686;23.350;2024-03-07T12:18:04;4.87;;;4.47;;
2039;SDS011;1025;42.686;23.350;2024-03-07T12:20:37;7.67;;;4.77;;
2039;SDS011;1025;42.686;23.350;2024-03-07T12:23:07;4.30;;;3.90;;
2039;SDS011;1025;42.686;23.350;2024-03-07T12:25:34;5.73;;;4.80;;
2039;SDS011;1025;42.686;23.350;2024-03-07T12:28:04;4.80;;;4.00;;
2039;SDS011;1025;42.686;23.350;2024-03-07T12:30:33;5.93;;;4.43;;
2039;SDS011;1025;42.686;23.350;2024-03-07T12:33:00;6.67;;;5.17;;
2039;SDS011;1025;42.686;23.350;2024-03-07T12:35:30;7.10;;;6.50;;
2039;SDS011;1025;42.686;23.350;2024-03-07T12:37:59;6.80;;;6.17;;
2039;SDS011;1025;42.686;23.350;2024-03-07T12:40:28;6.70;;;5.30;;
2039;SDS011;1025;42.686;23.350;2024-03-07T12:42:59;8.57;;;7.17;;
2039;SDS011;1025;42.686;23.350;2024-03-07T12:45:27;7.37;;;6.27;;
2039;SDS011;1025;42.686;23.350;2024-03-07T12:47:54;4.33;;;3.93;;
2039;SDS011;1025;42.686;23.350;2024-03-07T12:50:21;6.90;;;6.17;;
2039;SDS011;1025;42.686;23.350;2024-03-07T12:52:49;5.33;;;4.53;;
2039;SDS011;1025;42.686;23.350;2024-03-07T12:55:18;9.90;;;7.83;;
2039;SDS011;1025;42.686;23.350;2024-03-07T12:57:46;7.90;;;7.10;;
2039;SDS011;1025;42.686;23.350;2024-03-07T13:00:15;7.40;;;6.33;;
2039;SDS011;1025;42.686;23.350;2024-03-07T13:02:46;6.63;;;6.03;;
2039;SDS011;1025;42.686;23.350;2024-03-07T13:05:13;10.97;;;6.83;;
2039;SDS011;1025;42.686;23.350;2024-03-07T13:07:44;6.67;;;5.97;;
2039;SDS011;1025;42.686;23.350;2024-03-07T13:10:15;8.50;;;6.93;;
2039;SDS011;1025;42.686;23.350;2024-03-07T13:12:43;6.90;;;6.20;;
2039;SDS011;1025;42.686;23.350;2024-03-07T13:15:11;8.57;;;5.47;;
2039;SDS011;1025;42.686;23.350;2024-03-07T13:17:40;5.57;;;5.10;;
2039;SDS011;1025;42.686;23.350;2024-03-07T13:20:09;5.90;;;5.30;;
2039;SDS011;1025;42.686;23.350;2024-03-07T13:22:38;6.07;;;5.40;;
2039;SDS011;1025;42.686;23.350;2024-03-07T13:25:07;6.40;;;5.80;;
2039;SDS011;1025;42.686;23.350;2024-03-07T13:27:43;5.70;;;5.00;;
2039;SDS011;1025;42.686;23.350;2024-03-07T13:30:10;6.50;;;5.83;;
2039;SDS011;1025;42.686;23.350;2024-03-07T13:32:49;6.40;;;5.70;;
2039;SDS011;1025;42.686;23.350;2024-03-07T13:35:16;6.23;;;5.63;;
2039;SDS011;1025;42.686;23.350;2024-03-07T13:37:44;5.43;;;4.93;;
2039;SDS011;1025;42.686;23.350;2024-03-07T13:40:12;4.47;;;3.90;;
2039;SDS011;1025;42.686;23.350;2024-03-07T13:42:52;5.03;;;4.60;;
2039;SDS011;1025;42.686;23.350;2024-03-07T13:45:23;6.30;;;4.83;;
2039;SDS011;1025;42.686;23.350;2024-03-07T13:47:51;6.20;;;4.47;;
2039;SDS011;1025;42.686;23.350;2024-03-07T13:50:22;5.00;;;4.47;;
2039;SDS011;1025;42.686;23.350;2024-03-07T13:52:49;5.10;;;4.60;;
2039;SDS011;1025;42.686;23.350;2024-03-07T13:55:33;5.50;;;4.40;;
2039;SDS011;1025;42.686;23.350;2024-03-07T13:58:03;6.90;;;6.20;;
2039;SDS011;1025;42.686;23.350;2024-03-07T14:00:36;7.33;;;4.50;;
2039;SDS011;1025;42.686;23.350;2024-03-07T14:03:18;5.77;;;5.20;;
2039;SDS011;1025;42.686;23.350;2024-03-07T14:05:57;7.57;;;6.90;;
2039;SDS011;1025;42.686;23.350;2024-03-07T14:08:32;12.23;;;10.37;;
2039;SDS011;1025;42.686;23.350;2024-03-07T14:14:03;7.80;;;7.00;;
2039;SDS011;1025;42.686;23.350;2024-03-07T14:16:53;7.30;;;5.93;;
2039;SDS011;1025;42.686;23.350;2024-03-07T14:22:21;6.50;;;6.00;;
2039;SDS011;1025;42.686;23.350;2024-03-07T14:27:43;7.23;;;6.50;;
2039;SDS011;1025;42.686;23.350;2024-03-07T14:30:19;6.97;;;6.33;;
2039;SDS011;1025;42.686;23.350;2024-03-07T14:32:49;10.90;;;6.50;;
2039;SDS011;1025;42.686;23.350;2024-03-07T14:35:22;8.20;;;6.97;;
2039;SDS011;1025;42.686;23.350;2024-03-07T14:37:53;7.67;;;6.87;;
2039;SDS011;1025;42.686;23.350;2024-03-07T14:40:21;7.53;;;6.93;;
2039;SDS011;1025;42.686;23.350;2024-03-07T14:42:50;15.50;;;9.30;;
2039;SDS011;1025;42.686;23.350;2024-03-07T14:45:23;10.60;;;7.83;;
2039;SDS011;1025;42.686;23.350;2024-03-07T14:47:52;10.00;;;9.00;;
2039;SDS011;1025;42.686;23.350;2024-03-07T14:50:18;13.07;;;10.23;;
2039;SDS011;1025;42.686;23.350;2024-03-07T14:52:48;11.10;;;9.83;;
2039;SDS011;1025;42.686;23.350;2024-03-07T14:55:15;10.13;;;8.87;;
2039;SDS011;1025;42.686;23.350;2024-03-07T14:57:44;9.30;;;8.30;;
2039;SDS011;1025;42.686;23.350;2024-03-07T15:00:11;9.80;;;8.40;;
2039;SDS011;1025;42.686;23.350;2024-03-07T15:02:45;10.50;;;8.03;;
2039;SDS011;1025;42.686;23.350;2024-03-07T15:05:12;10.77;;;9.67;;
2039;SDS011;1025;42.686;23.350;2024-03-07T15:07:40;12.17;;;8.40;;
2039;SDS011;1025;42.686;23.350;2024-03-07T15:10:09;10.87;;;7.97;;
2039;SDS011;1025;42.686;23.350;2024-03-07T15:12:37;10.40;;;8.70;;
2039;SDS011;1025;42.686;23.350;2024-03-07T15:15:04;10.30;;;8.97;;